Time;durP1;ratioP1;P1;durP2;ratioP2;P2;SDS_P1;SDS_P2;PMS_P1;PMS_P2;Temp;Humidity;BMP_temperature;BMP_pressure;BME280_temperature;BME280_humidity;BME280_pressure;Samples;Min_cycle;Max_cycle;Signal;HPM_P1;HPM_P2
2023/01/26 00:01:44;;;;;;;23.38;3.80;;;;;;;2.85;100.00;101924.66;6245587;22;20004;-94
2023/01/26 00:04:10;;;;;;;29.02;3.45;;;;;;;2.88;100.00;101930.59;6245137;22;20095;-96
2023/01/26 00:06:41;;;;;;;22.52;3.85;;;;;;;2.86;100.00;101927.22;6246013;22;20008;-95
2023/01/26 00:09:13;;;;;;;24.10;3.22;;;;;;;2.89;100.00;101927.19;6244952;22;20012;-95
2023/01/26 00:11:39;;;;;;;20.50;2.95;;;;;;;2.79;100.00;101917.88;6245878;22;20004;-95
2023/01/26 00:14:04;;;;;;;29.80;4.38;;;;;;;2.78;100.00;101913.63;6245580;22;20079;-95
2023/01/26 00:16:30;;;;;;;19.33;3.38;;;;;;;2.72;100.00;101898.31;6246265;22;20432;-95
2023/01/26 00:18:56;;;;;;;30.45;3.15;;;;;;;2.90;100.00;101907.63;6246330;22;20011;-96
2023/01/26 00:21:23;;;;;;;30.35;4.20;;;;;;;2.85;100.00;101900.00;6245882;22;20008;-96
2023/01/26 00:23:50;;;;;;;24.77;3.97;;;;;;;2.87;100.00;101897.44;6246039;22;20012;-95
2023/01/26 00:26:27;;;;;;;31.35;5.32;;;;;;;3.03;100.00;101936.53;6245959;22;20374;-95
2023/01/26 00:28:53;;;;;;;27.83;3.00;;;;;;;2.81;100.00;101911.06;6246204;22;20035;-96
2023/01/26 00:31:26;;;;;;;28.25;4.07;;;;;;;2.88;100.00;101922.97;6245955;22;20015;-96
2023/01/26 00:33:53;;;;;;;21.55;3.28;;;;;;;2.82;100.00;101912.75;6247823;22;20004;-95
2023/01/26 00:36:19;;;;;;;20.52;3.55;;;;;;;2.88;100.00;101915.31;6246999;22;20058;-95
2023/01/26 00:38:45;;;;;;;16.90;3.28;;;;;;;2.85;100.00;101910.19;6247475;22;20004;-96
2023/01/26 00:42:05;;;;;;;30.92;3.65;;;;;;;3.11;100.00;101942.47;6247301;22;20069;-95
2023/01/26 00:43:57;;;;;;;26.70;5.22;;;;;;;2.94;100.00;101922.09;6247869;22;20004;-94
2023/01/26 00:46:22;;;;;;;26.40;3.47;;;;;;;3.00;100.00;101915.28;6249058;22;20008;-95
2023/01/26 00:48:48;;;;;;;20.73;2.95;;;;;;;3.23;100.00;101927.13;6248990;22;20020;-95
2023/01/26 00:51:14;;;;;;;18.65;3.53;;;;;;;3.16;100.00;101917.78;6247745;22;20312;-96
2023/01/26 00:53:42;;;;;;;28.83;5.43;;;;;;;3.16;100.00;101917.78;6246675;22;20082;-96
2023/01/26 00:56:08;;;;;;;35.00;4.65;;;;;;;3.23;100.00;101914.34;6246337;22;20011;-95
2023/01/26 00:58:33;;;;;;;28.73;6.45;;;;;;;3.24;100.00;101918.59;6246740;22;19996;-96
2023/01/26 01:00:59;;;;;;;22.95;3.63;;;;;;;3.17;100.00;101906.72;6246273;22;20011;-95
2023/01/26 01:03:25;;;;;;;26.23;4.00;;;;;;;3.19;100.00;101910.09;6246964;22;20000;-95
2023/01/26 01:05:51;;;;;;;28.67;6.05;;;;;;;3.34;100.00;101934.72;6245787;22;20012;-95
2023/01/26 01:08:16;;;;;;;26.92;3.97;;;;;;;3.21;100.00;101909.25;6246139;22;20008;-95
2023/01/26 01:10:42;;;;;;;32.13;6.40;;;;;;;3.33;100.00;101927.94;6246385;22;20311;-96
2023/01/26 01:13:08;;;;;;;17.55;3.95;;;;;;;3.26;100.00;101916.91;6246111;22;20423;-95
2023/01/26 01:15:34;;;;;;;23.02;3.30;;;;;;;3.23;100.00;101916.91;6246546;22;20358;-96
2023/01/26 01:17:59;;;;;;;27.13;4.85;;;;;;;3.20;100.00;101917.78;6246785;22;20005;-95
2023/01/26 01:20:25;;;;;;;22.90;4.63;;;;;;;3.41;100.00;101950.03;6246942;22;19996;-94
2023/01/26 01:22:51;;;;;;;22.02;4.65;;;;;;;3.23;100.00;101916.91;6246230;22;20423;-95
2023/01/26 01:25:16;;;;;;;17.33;3.75;;;;;;;3.19;100.00;101910.09;6245899;22;20008;-96
2023/01/26 01:27:42;;;;;;;32.13;3.97;;;;;;;3.17;100.00;101919.47;6246477;22;20011;-96
2023/01/26 01:30:09;;;;;;;22.48;4.30;;;;;;;3.25;100.00;101925.41;6246223;22;20012;-95
2023/01/26 01:32:35;;;;;;;30.30;4.50;;;;;;;3.17;100.00;101937.31;6245994;22;20039;-94
2023/01/26 01:35:03;;;;;;;34.95;4.43;;;;;;;3.15;100.00;101932.25;6245755;22;20004;-96
2023/01/26 01:37:29;;;;;;;24.90;4.47;;;;;;;3.30;100.00;101941.56;6245953;22;20011;-95
2023/01/26 01:39:58;;;;;;;23.75;3.85;;;;;;;3.33;100.00;101951.75;6246031;22;20008;-95
2023/01/26 01:42:24;;;;;;;26.17;3.70;;;;;;;3.22;100.00;101944.13;6246531;22;20024;-96
2023/01/26 01:45:38;;;;;;;19.50;3.78;;;;;;;3.33;100.00;101972.16;6245917;22;20375;-95
2023/01/26 01:48:10;;;;;;;24.75;4.85;;;;;;;3.28;100.00;101953.47;6225613;22;20008;-94
2023/01/26 01:50:38;;;;;;;21.10;4.57;;;;;;;3.16;100.00;101936.47;6246032;22;20008;-95
2023/01/26 01:53:07;;;;;;;23.25;3.72;;;;;;;3.14;100.00;101934.78;6246319;22;20012;-96
2023/01/26 01:55:34;;;;;;;29.63;4.32;;;;;;;3.21;100.00;101946.69;6246274;22;20434;-95
2023/01/26 01:58:03;;;;;;;29.73;4.63;;;;;;;3.14;100.00;101935.63;6245964;22;20007;-95
2023/01/26 02:00:29;;;;;;;21.15;3.78;;;;;;;2.91;100.00;101933.16;6246025;22;20000;-95
2023/01/26 02:03:09;;;;;;;24.00;5.68;;;;;;;3.09;100.00;101967.13;6245786;22;20396;-96
2023/01/26 02:05:55;;;;;;;31.95;4.38;;;;;;;2.96;100.00;101958.66;6246257;22;20007;-95
2023/01/26 02:08:25;;;;;;;31.20;5.57;;;;;;;2.82;100.00;101934.84;6245978;22;20035;-96
2023/01/26 02:10:55;;;;;;;28.35;4.30;;;;;;;2.85;100.00;101958.63;6245969;22;20430;-96
2023/01/26 02:13:23;;;;;;;25.42;4.10;;;;;;;2.60;100.00;101934.03;6245738;22;20062;-95
2023/01/26 02:15:50;;;;;;;22.35;4.25;;;;;;;2.67;100.00;101962.06;6245922;22;20096;-96
2023/01/26 02:18:16;;;;;;;33.80;4.63;;;;;;;2.41;100.00;101928.91;6245911;22;20004;-95
2023/01/26 02:20:50;;;;;;;27.13;4.38;;;;;;;2.51;100.00;101961.22;6245639;22;20015;-96
2023/01/26 02:23:34;;;;;;;23.05;4.28;;;;;;;2.49;100.00;101968.00;6245807;22;20500;-95
2023/01/26 02:26:06;;;;;;;25.40;3.63;;;;;;;2.38;100.00;101959.50;6245730;22;20012;-95
2023/01/26 02:28:34;;;;;;;28.38;6.57;;;;;;;2.06;100.00;101947.56;6245476;22;20011;-95
2023/01/26 02:31:00;;;;;;;32.47;4.38;;;;;;;1.91;100.00;101939.91;6245479;22;20438;-95
2023/01/26 02:33:28;;;;;;;23.27;4.25;;;;;;;1.77;100.00;101933.91;6245773;22;20008;-96
2023/01/26 02:35:54;;;;;;;20.95;4.55;;;;;;;1.88;100.00;101957.72;6244721;22;20004;-96
2023/01/26 02:38:22;;;;;;;32.97;5.50;;;;;;;1.70;100.00;101964.44;6245066;22;20062;-95
2023/01/26 02:40:59;;;;;;;32.47;5.22;;;;;;;1.54;100.00;101936.38;6245657;22;20036;-95
2023/01/26 02:43:26;;;;;;;23.70;5.32;;;;;;;1.52;100.00;101927.91;6245766;22;19996;-96
2023/01/26 02:45:52;;;;;;;36.00;5.32;;;;;;;1.51;100.00;101937.19;6245372;22;20403;-95
2023/01/26 02:51:03;;;;;;;33.35;4.97;;;;;;;1.36;100.00;101934.59;6246733;22;20011;-96
2023/01/26 02:53:29;;;;;;;26.42;5.05;;;;;;;1.71;100.00;101955.97;6245129;22;20004;-95
2023/01/26 02:55:55;;;;;;;34.17;5.35;;;;;;;1.52;100.00;101933.84;6244787;22;20015;-96
2023/01/26 02:58:20;;;;;;;26.05;5.43;;;;;;;1.70;100.00;101966.97;6245019;22;20492;-96
2023/01/26 03:00:46;;;;;;;27.15;6.07;;;;;;;1.69;100.00;101967.81;6245075;22;20414;-94
2023/01/26 03:03:20;;;;;;;27.67;5.05;;;;;;;1.52;100.00;101944.00;6244904;22;20011;-96
2023/01/26 03:05:45;;;;;;;30.45;5.30;;;;;;;1.60;100.00;101972.88;6245319;22;20020;-95
2023/01/26 03:08:11;;;;;;;33.78;6.07;;;;;;;1.39;100.00;101957.50;6244819;22;20044;-95
2023/01/26 03:10:37;;;;;;;32.05;5.78;;;;;;;1.28;100.00;101952.38;6245573;22;20004;-95
2023/01/26 03:13:06;;;;;;;29.17;5.28;;;;;;;1.19;100.00;101949.78;6244998;22;20008;-96
2023/01/26 03:15:41;;;;;;;24.33;4.93;;;;;;;1.19;100.00;101963.34;6245280;22;20030;-96
2023/01/26 03:29:17;;;;;;;38.95;5.68;;;;;;;0.92;100.00;101965.72;6246940;22;20338;-96
2023/01/26 03:31:46;;;;;;;19.88;6.80;;;;;;;0.81;100.00;101946.16;6245584;22;20000;-95
2023/01/26 03:34:15;;;;;;;23.75;4.80;;;;;;;0.88;100.00;101958.88;6245012;22;20004;-95
2023/01/26 03:36:40;;;;;;;32.17;5.20;;;;;;;0.87;100.00;101973.28;6244004;22;20015;-95
2023/01/26 03:39:09;;;;;;;31.10;5.78;;;;;;;0.80;100.00;101957.13;6244984;22;20008;-95
2023/01/26 03:58:02;;;;;;;52.85;7.07;;;;;;;1.28;100.00;101963.38;6246023;22;20346;-96
2023/01/26 04:00:28;;;;;;;30.58;6.78;;;;;;;1.35;100.00;101981.25;6245522;22;20004;-95
2023/01/26 04:08:26;;;;;;;26.15;6.82;;;;;;;1.02;100.00;101967.47;6247636;22;20062;-96
2023/01/26 04:10:55;;;;;;;24.15;5.80;;;;;;;1.22;100.00;101991.34;6247047;22;20043;-95
2023/01/26 04:21:38;;;;;;;35.67;6.97;;;;;;;0.92;100.00;101975.88;6248451;22;20342;-95
2023/01/26 04:24:12;;;;;;;29.77;5.43;;;;;;;0.99;100.00;101982.72;6246905;22;20011;-96
2023/01/26 04:26:39;;;;;;;30.90;6.35;;;;;;;0.99;100.00;101997.97;6246199;22;20476;-95
2023/01/26 04:29:13;;;;;;;23.35;6.38;;;;;;;0.87;100.00;101967.38;6246787;22;20065;-95
2023/01/26 04:31:39;;;;;;;25.35;6.25;;;;;;;0.66;100.00;101966.38;6246319;22;20327;-96
2023/01/26 04:34:09;;;;;;;28.25;6.03;;;;;;;0.59;100.00;101997.66;6246720;22;20107;-95
2023/01/26 04:36:35;;;;;;;37.33;9.98;;;;;;;0.71;100.00;101972.34;6246250;22;20150;-96
2023/01/26 04:39:03;;;;;;;37.53;5.90;;;;;;;0.76;100.00;101970.69;6245711;22;20000;-96
2023/01/26 04:41:30;;;;;;;30.33;6.18;;;;;;;0.80;100.00;101980.00;6246240;22;20004;-95
2023/01/26 04:43:55;;;;;;;34.53;6.65;;;;;;;0.76;100.00;102001.19;6247324;22;20031;-96
2023/01/26 04:46:22;;;;;;;39.13;6.35;;;;;;;0.52;100.00;101983.19;6246539;22;20007;-95
2023/01/26 04:48:47;;;;;;;32.47;6.78;;;;;;;0.60;100.00;101981.56;6246188;22;20316;-95
2023/01/26 04:51:15;;;;;;;23.92;6.40;;;;;;;0.70;100.00;102003.66;6246727;22;20011;-95
2023/01/26 04:53:41;;;;;;;27.02;5.80;;;;;;;0.49;100.00;101996.72;6246467;22;20004;-95
2023/01/26 04:56:08;;;;;;;43.75;6.65;;;;;;;0.64;100.00;102001.94;6245885;22;20008;-96
2023/01/26 04:58:34;;;;;;;30.30;6.47;;;;;;;0.65;100.00;101992.59;6246273;22;20062;-95
2023/01/26 05:00:59;;;;;;;30.10;6.95;;;;;;;0.56;100.00;102000.13;6246352;22;20000;-96
2023/01/26 05:03:26;;;;;;;22.60;5.95;;;;;;;0.57;100.00;102004.41;6246058;22;20399;-96
2023/01/26 05:05:53;;;;;;;22.42;5.10;;;;;;;0.43;100.00;102005.09;6246721;22;20004;-95
2023/01/26 05:08:21;;;;;;;31.52;5.75;;;;;;;0.53;100.00;102023.00;6246533;22;20265;-95
2023/01/26 05:10:47;;;;;;;39.40;6.43;;;;;;;0.59;100.00;102023.91;6246623;22;20004;-95
2023/01/26 05:13:13;;;;;;;22.38;6.22;;;;;;;0.26;100.00;101991.41;6246240;22;20004;-95
2023/01/26 05:15:39;;;;;;;30.88;6.03;;;;;;;0.40;100.00;101994.09;6246579;22;20008;-96
2023/01/26 05:18:06;;;;;;;21.60;6.05;;;;;;;0.60;100.00;102012.88;6246278;22;20027;-95
2023/01/26 05:20:34;;;;;;;29.92;7.18;;;;;;;0.61;100.00;102031.53;6246199;22;20520;-95
2023/01/26 05:23:00;;;;;;;37.20;6.93;;;;;;;0.63;100.00;102029.84;6246082;22;20004;-95
2023/01/26 05:25:26;;;;;;;22.65;6.38;;;;;;;0.39;100.00;101990.69;6246183;22;20509;-96
2023/01/26 05:27:52;;;;;;;28.48;9.13;;;;;;;0.48;100.00;102024.63;6246514;22;20004;-96
2023/01/26 05:30:21;;;;;;;38.13;7.90;;;;;;;0.45;100.00;101994.97;6246437;22;20398;-94
2023/01/26 05:32:47;;;;;;;29.35;8.88;;;;;;;0.57;100.00;102006.94;6246448;22;20004;-94
2023/01/26 05:35:12;;;;;;;36.08;8.15;;;;;;;0.49;100.00;102006.88;6246214;22;20079;-95
2023/01/26 05:37:40;;;;;;;22.23;7.13;;;;;;;0.39;100.00;101993.25;6246432;22;20004;-95
2023/01/26 05:40:07;;;;;;;38.63;7.90;;;;;;;0.39;100.00;102010.13;6246487;22;20086;-95
2023/01/26 05:42:33;;;;;;;30.83;7.80;;;;;;;0.37;100.00;102002.53;6246406;22;20062;-95
2023/01/26 05:44:58;;;;;;;37.20;7.88;;;;;;;0.41;100.00;101989.03;6246017;22;20008;-95
2023/01/26 05:47:24;;;;;;;30.10;8.82;;;;;;;0.64;100.00;102011.25;6246112;22;20016;-95
2023/01/26 05:49:50;;;;;;;28.80;7.40;;;;;;;0.36;100.00;101985.56;6246039;22;20011;-95
2023/01/26 05:52:17;;;;;;;40.22;10.30;;;;;;;0.48;100.00;101984.00;6246077;22;20012;-95
2023/01/26 05:54:43;;;;;;;33.58;8.70;;;;;;;0.31;100.00;101969.44;6246489;22;20066;-96
2023/01/26 05:57:10;;;;;;;24.00;8.10;;;;;;;0.40;100.00;101986.47;6246216;22;20024;-95
2023/01/26 05:59:37;;;;;;;21.23;8.05;;;;;;;0.32;100.00;101994.00;6246432;22;20031;-94
2023/01/26 06:02:03;;;;;;;34.08;8.68;;;;;;;0.39;100.00;101995.78;6246952;22;20012;-95
2023/01/26 06:04:29;;;;;;;40.58;10.45;;;;;;;0.47;100.00;102003.47;6247005;22;20341;-95
2023/01/26 06:06:56;;;;;;;34.83;11.23;;;;;;;0.46;100.00;101995.81;6246570;22;20012;-94
2023/01/26 06:09:23;;;;;;;40.45;9.52;;;;;;;0.39;100.00;101995.78;6245781;22;20000;-96
2023/01/26 06:11:49;;;;;;;37.92;9.93;;;;;;;0.27;100.00;102000.75;6246783;22;20008;-96
2023/01/26 06:14:15;;;;;;;34.00;9.25;;;;;;;0.13;100.00;102012.44;6245525;22;20513;-94
2023/01/26 06:16:41;;;;;;;38.28;10.05;;;;;;;0.07;100.00;102009.81;6245610;22;20015;-94
2023/01/26 06:19:09;;;;;;;36.95;10.95;;;;;;;0.05;100.00;102007.28;6246803;22;19996;-96
2023/01/26 06:39:46;;;;;;;32.60;11.07;;;;;;;0.04;100.00;102040.25;6238570;22;20401;-95
2023/01/26 06:42:12;;;;;;;42.10;11.70;;;;;;;0.04;100.00;102033.47;6246297;23;20004;-96
2023/01/26 06:44:37;;;;;;;31.58;11.73;;;;;;;0.19;100.00;102058.19;6246149;23;20024;-96
2023/01/26 06:47:04;;;;;;;39.97;12.02;;;;;;;0.26;100.00;102054.88;6245893;22;20000;-95
2023/01/26 06:49:30;;;;;;;33.72;10.30;;;;;;;0.27;100.00;102050.66;6245438;22;20008;-95
2023/01/26 06:52:17;;;;;;;46.50;11.38;;;;;;;0.25;100.00;102083.66;6246580;22;20000;-94
2023/01/26 06:54:43;;;;;;;38.03;10.80;;;;;;;0.07;100.00;102070.72;6246282;22;20008;-95
2023/01/26 06:57:08;;;;;;;39.47;11.20;;;;;;;0.04;100.00;102088.47;6245542;22;20031;-95
2023/01/26 06:59:34;;;;;;;30.60;11.07;;;;;;;-0.04;100.00;102068.91;6245508;22;20027;-95
2023/01/26 07:01:59;;;;;;;36.88;10.32;;;;;;;-0.01;100.00;102056.25;6245490;22;20004;-95
2023/01/26 07:04:26;;;;;;;52.25;11.13;;;;;;;0.03;100.00;102063.94;6245495;22;20008;-94
2023/01/26 07:06:52;;;;;;;49.40;11.65;;;;;;;0.38;100.00;102095.66;6245910;22;20427;-94
2023/01/26 07:09:17;;;;;;;28.55;11.40;;;;;;;0.09;100.00;102061.47;6245909;22;20031;-95
2023/01/26 07:11:43;;;;;;;49.55;12.65;;;;;;;0.29;100.00;102089.63;6246009;22;20437;-95
2023/01/26 07:14:08;;;;;;;36.40;12.15;;;;;;;0.20;100.00;102077.69;6245765;22;20028;-94
2023/01/26 07:16:34;;;;;;;35.33;12.38;;;;;;;-0.03;100.00;102060.47;6245730;22;20457;-94
2023/01/26 07:19:00;;;;;;;39.42;11.38;;;;;;;0.15;100.00;102110.63;6245339;22;20062;-96
2023/01/26 07:21:26;;;;;;;38.58;12.55;;;;;;;0.13;100.00;102094.53;6245293;22;20008;-94
2023/01/26 07:23:52;;;;;;;48.88;13.02;;;;;;;0.08;100.00;102080.06;6245259;22;20019;-94
2023/01/26 07:26:18;;;;;;;37.25;11.18;;;;;;;0.11;100.00;102085.19;6246039;22;20012;-95
2023/01/26 07:28:44;;;;;;;37.70;11.05;;;;;;;0.31;100.00;102087.94;6244785;22;20004;-96
2023/01/26 07:31:10;;;;;;;38.10;11.57;;;;;;;0.47;100.00;102083.91;6245460;22;20004;-95
2023/01/26 07:33:36;;;;;;;40.63;11.80;;;;;;;0.66;100.00;102111.22;6244987;22;20086;-94
2023/01/26 07:36:02;;;;;;;30.60;11.75;;;;;;;0.69;100.00;102083.28;6245254;22;20069;-95
2023/01/26 07:38:28;;;;;;;34.33;10.98;;;;;;;0.98;100.00;102119.16;6245102;22;20008;-95
2023/01/26 07:40:54;;;;;;;47.92;13.23;;;;;;;1.04;100.00;102090.38;6245045;22;20426;-95
2023/01/26 07:43:20;;;;;;;34.67;12.15;;;;;;;1.23;100.00;102140.56;6245306;22;20008;-95
2023/01/26 07:45:47;;;;;;;31.15;11.82;;;;;;;1.25;100.00;102123.63;6245352;22;20082;-94
2023/01/26 07:48:14;;;;;;;48.03;13.25;;;;;;;1.25;100.00;102138.88;6244910;22;20004;-96
2023/01/26 07:50:40;;;;;;;43.45;11.02;;;;;;;1.02;100.00;102103.06;6244464;22;20035;-96
2023/01/26 07:53:07;;;;;;;41.25;12.70;;;;;;;0.88;100.00;102101.22;6244865;22;20000;-95
2023/01/26 07:55:34;;;;;;;34.20;10.98;;;;;;;0.89;100.00;102103.81;6244373;22;20008;-95
2023/01/26 07:58:00;;;;;;;37.22;12.55;;;;;;;0.92;100.00;102123.31;6244476;22;20032;-95
2023/01/26 08:00:25;;;;;;;38.38;12.18;;;;;;;0.79;100.00;102102.88;6245145;22;20423;-96
2023/01/26 08:02:51;;;;;;;25.98;10.38;;;;;;;0.97;100.00;102121.66;6244888;22;20090;-95
2023/01/26 08:05:17;;;;;;;31.73;9.82;;;;;;;0.78;100.00;102096.09;6245703;22;19996;-95
2023/01/26 08:07:42;;;;;;;30.50;10.57;;;;;;;1.04;100.00;102100.53;6245139;22;20494;-95
2023/01/26 08:10:09;;;;;;;39.85;11.32;;;;;;;1.21;100.00;102116.78;6244427;22;20004;-95
2023/01/26 08:12:36;;;;;;;36.42;10.18;;;;;;;1.34;100.00;102127.94;6244690;22;20223;-95
2023/01/26 08:15:02;;;;;;;26.80;10.05;;;;;;;1.12;100.00;102096.38;6244307;22;20015;-94
2023/01/26 08:17:28;;;;;;;30.33;10.20;;;;;;;1.06;100.00;102102.25;6244731;22;20004;-96
2023/01/26 08:19:54;;;;;;;35.83;11.40;;;;;;;1.11;100.00;102102.31;6244437;22;20000;-95
2023/01/26 08:22:19;;;;;;;27.85;9.90;;;;;;;1.46;100.00;102127.16;6244993;22;20008;-95
2023/01/26 08:24:45;;;;;;;23.75;9.90;;;;;;;1.41;100.00;102104.22;6246227;22;20014;-96
2023/01/26 08:27:10;;;;;;;25.38;10.90;;;;;;;1.60;100.00;102117.09;6245218;22;20008;-95
2023/01/26 08:29:36;;;;;;;23.00;8.88;;;;;;;1.61;100.00;102127.28;6244583;22;20004;-95
2023/01/26 08:32:02;;;;;;;29.52;9.55;;;;;;;1.60;100.00;102089.94;6244086;22;20142;-95
2023/01/26 08:34:28;;;;;;;33.78;10.90;;;;;;;1.81;100.00;102114.69;6244605;22;20004;-95
2023/01/26 08:36:53;;;;;;;26.92;9.85;;;;;;;1.81;100.00;102088.38;6244767;22;19996;-95
2023/01/26 08:39:19;;;;;;;24.80;8.38;;;;;;;2.11;100.00;102119.06;6246897;22;20060;-95
2023/01/26 08:41:46;;;;;;;20.42;7.55;;;;;;;2.06;100.00;102105.47;6247576;22;20488;-96
2023/01/26 08:44:11;;;;;;;18.17;7.78;;;;;;;2.18;100.00;102119.97;6244789;22;20056;-95
2023/01/26 08:46:37;;;;;;;26.60;8.63;;;;;;;2.18;100.00;102114.88;6244133;22;20040;-94
2023/01/26 08:49:02;;;;;;;26.00;10.90;;;;;;;2.34;100.00;102146.34;6244806;22;20000;-95
2023/01/26 08:51:28;;;;;;;31.52;12.52;;;;;;;2.32;100.00;102137.84;6244051;22;20008;-95
2023/01/26 08:53:53;;;;;;;35.38;12.13;;;;;;;2.30;100.00;102112.38;6244562;22;20019;-96
2023/01/26 08:56:20;;;;;;;30.15;12.18;;;;;;;2.51;100.00;102141.31;6246084;22;20103;-96
2023/01/26 08:58:45;;;;;;;31.10;12.50;;;;;;;2.70;100.00;102139.66;6246552;22;20004;-95
2023/01/26 09:01:13;;;;;;;27.52;12.20;;;;;;;2.70;100.00;102144.75;6246317;22;20429;-95
2023/01/26 09:03:39;;;;;;;25.65;12.85;;;;;;;2.59;100.00;102120.97;6246722;22;20008;-96
2023/01/26 09:06:07;;;;;;;25.02;11.55;;;;;;;2.61;100.00;102115.03;6246534;22;20003;-96
2023/01/26 09:08:33;;;;;;;30.38;11.00;;;;;;;2.86;100.00;102110.81;6246239;22;20039;-95
2023/01/26 09:10:59;;;;;;;38.72;11.77;;;;;;;3.94;100.00;102146.47;6246173;22;20000;-95
2023/01/26 09:13:24;;;;;;;26.55;11.32;;;;;;;3.64;100.00;102143.97;6246106;22;20004;-95
2023/01/26 09:15:50;;;;;;;22.25;9.77;;;;;;;3.29;100.00;102126.16;6246169;22;20008;-96
2023/01/26 09:18:16;;;;;;;29.45;10.15;;;;;;;2.96;100.00;102125.28;6246208;22;20001;-95
2023/01/26 09:20:43;;;;;;;27.10;11.60;;;;;;;2.88;100.00;102149.91;6245810;22;20004;-95
2023/01/26 09:23:11;;;;;;;21.00;9.52;;;;;;;2.83;100.00;102143.97;6246202;22;20039;-96
2023/01/26 09:25:37;;;;;;;29.08;9.45;;;;;;;2.64;100.00;102125.22;6245852;22;20007;-96
2023/01/26 09:28:03;;;;;;;27.92;9.68;;;;;;;2.61;100.00;102115.03;6246159;22;20330;-96
2023/01/26 09:30:29;;;;;;;19.45;9.27;;;;;;;2.73;100.00;102132.91;6246313;22;20221;-95
2023/01/26 09:32:59;;;;;;;22.05;9.50;;;;;;;2.83;100.00;102130.34;6245803;22;20245;-95
2023/01/26 09:35:26;;;;;;;24.48;8.68;;;;;;;3.02;100.00;102126.13;6246486;22;20357;-96
2023/01/26 09:37:51;;;;;;;21.95;8.02;;;;;;;2.92;100.00;102128.66;6245989;22;20082;-96
2023/01/26 09:40:33;;;;;;;16.60;8.15;;;;;;;2.99;100.00;102120.16;6246178;22;20018;-95
2023/01/26 09:43:17;;;;;;;;;;;;;;;3.38;100.00;102161.00;6246090;22;20019;-96
2023/01/26 09:46:02;;;;;;;14.50;6.25;;;;;;;3.11;100.00;102116.78;6245661;22;19908;-96
2023/01/26 09:48:39;;;;;;;21.13;5.88;;;;;;;3.15;100.00;102117.66;6245519;22;20008;-96
2023/01/26 09:51:32;;;;;;;12.70;5.40;;;;;;;3.25;100.00;102119.34;6245663;22;20004;-96
2023/01/26 09:54:10;;;;;;;12.35;5.50;;;;;;;3.37;100.00;102124.44;6245645;22;20011;-95
2023/01/26 09:56:35;;;;;;;13.63;5.63;;;;;;;3.90;100.00;102147.34;6245611;22;20520;-96
2023/01/26 09:59:19;;;;;;;18.83;6.93;;;;;;;4.49;100.00;102172.72;6245655;22;20008;-95
2023/01/26 10:02:09;;;;;;;19.08;6.25;;;;;;;4.49;99.01;102136.06;6245395;22;20003;-95
2023/01/26 10:04:38;;;;;;;15.57;5.32;;;;;;;4.57;97.22;102124.09;6245374;22;20095;-94
2023/01/26 10:07:10;;;;;;;18.73;6.07;;;;;;;5.13;94.19;102139.94;6245161;22;20000;-96
2023/01/26 10:09:38;;;;;;;10.70;5.03;;;;;;;5.52;89.89;102138.75;6245716;22;20004;-96
2023/01/26 10:12:27;;;;;;;12.10;5.00;;;;;;;5.85;87.24;102146.13;6245998;22;20387;-95
2023/01/26 10:15:09;;;;;;;13.48;5.47;;;;;;;6.13;86.34;102172.34;6245571;22;20365;-95
2023/01/26 10:17:38;;;;;;;;;;;;;;;6.21;86.86;102176.50;6246052;22;20605;-95
2023/01/26 10:20:05;;;;;;;16.02;4.78;;;;;;;5.76;86.29;102167.56;6245408;22;19907;-95
2023/01/26 10:22:52;;;;;;;10.10;4.35;;;;;;;6.95;80.11;102144.78;6245906;22;20358;-95
2023/01/26 10:25:32;;;;;;;15.02;4.82;;;;;;;6.40;81.46;102168.59;6245464;22;20008;-96
2023/01/26 10:27:58;;;;;;;20.60;5.15;;;;;;;6.72;81.53;102167.34;6245774;22;20091;-96
2023/01/26 10:30:24;;;;;;;11.55;5.30;;;;;;;6.95;79.03;102165.31;6245552;22;20443;-96
2023/01/26 10:32:51;;;;;;;15.82;4.93;;;;;;;10.11;67.07;102137.13;6245425;22;20073;-95
2023/01/26 10:35:21;;;;;;;15.50;5.35;;;;;;;12.78;55.94;102153.25;6245691;22;20012;-95
2023/01/26 10:37:48;;;;;;;12.43;4.25;;;;;;;13.55;54.32;102153.56;6245862;22;20000;-95
2023/01/26 10:40:13;;;;;;;5.72;3.33;;;;;;;13.54;50.75;102151.88;6245619;22;20439;-95
2023/01/26 10:42:39;;;;;;;10.35;4.18;;;;;;;11.28;56.48;102167.19;6245394;22;20087;-95
2023/01/26 10:45:30;;;;;;;9.13;3.58;;;;;;;11.40;56.49;102159.03;6245613;22;20077;-96
2023/01/26 10:48:05;;;;;;;11.10;4.40;;;;;;;10.79;58.36;102189.41;6245256;22;20377;-96
2023/01/26 10:50:31;;;;;;;14.40;4.25;;;;;;;10.40;59.53;102174.22;6245384;22;20079;-96
2023/01/26 10:53:00;;;;;;;14.70;5.20;;;;;;;9.69;62.33;102170.09;6245188;22;20000;-94
2023/01/26 10:55:26;;;;;;;7.63;3.20;;;;;;;9.90;61.31;102145.47;6245646;22;20013;-95
2023/01/26 10:57:52;;;;;;;13.50;4.22;;;;;;;9.11;62.90;102157.78;6245698;22;20012;-95
2023/01/26 11:00:19;;;;;;;9.38;3.35;;;;;;;9.57;62.26;102176.41;6245937;22;20004;-96
2023/01/26 11:02:51;;;;;;;8.95;3.63;;;;;;;12.47;54.79;102143.22;6245764;22;20035;-96
2023/01/26 11:05:22;;;;;;;8.95;3.72;;;;;;;13.98;49.87;102148.28;6245652;22;20012;-94
2023/01/26 11:07:53;;;;;;;12.40;3.55;;;;;;;13.07;51.67;102142.53;6244928;22;20099;-95
2023/01/26 11:10:30;;;;;;;10.52;3.17;;;;;;;13.31;51.45;102189.13;6245041;22;20348;-95
2023/01/26 11:13:18;;;;;;;11.43;3.65;;;;;;;13.15;51.73;102199.28;6245567;22;20362;-96
2023/01/26 11:16:00;;;;;;;8.88;3.50;;;;;;;12.98;51.32;102179.19;6244632;22;20012;-95
2023/01/26 11:18:44;;;;;;;10.60;3.13;;;;;;;11.49;55.64;102205.28;6244874;22;20004;-95
2023/01/26 11:21:26;;;;;;;6.18;3.30;;;;;;;10.73;57.35;102181.84;6245107;22;20004;-95
2023/01/26 11:24:08;;;;;;;10.77;3.33;;;;;;;10.44;59.61;102175.81;6244899;22;20039;-96
2023/01/26 11:27:12;;;;;;;12.43;3.42;;;;;;;11.19;56.04;102183.84;6245035;22;20063;-95
2023/01/26 11:29:56;;;;;;;11.63;3.55;;;;;;;11.64;55.92;102185.81;6244911;22;20000;-95
2023/01/26 11:32:29;;;;;;;13.40;3.83;;;;;;;14.98;48.87;102181.75;6244966;22;20004;-96
2023/01/26 11:35:00;;;;;;;10.27;4.05;;;;;;;15.41;46.69;102192.66;6244637;22;20058;-95
2023/01/26 11:37:44;;;;;;;7.57;3.08;;;;;;;15.83;45.77;102190.59;6244629;22;20054;-96
2023/01/26 11:40:36;;;;;;;11.05;4.18;;;;;;;18.28;41.33;102172.38;6244626;22;20008;-95
2023/01/26 11:43:23;;;;;;;9.85;2.95;;;;;;;19.12;39.63;102180.09;6244448;22;20074;-95
2023/01/26 11:46:29;;;;;;;11.68;3.40;;;;;;;19.11;38.78;102152.22;6244162;22;20019;-96
2023/01/26 11:49:27;;;;;;;12.13;3.33;;;;;;;17.09;41.78;102161.16;6244532;22;20020;-96
2023/01/26 11:52:23;;;;;;;11.23;3.50;;;;;;;18.71;39.47;102139.13;6244488;22;20091;-95
2023/01/26 11:55:04;;;;;;;9.70;3.60;;;;;;;20.19;36.93;102166.72;6244562;22;20434;-96
2023/01/26 11:57:54;;;;;;;7.28;3.08;;;;;;;16.60;42.53;102174.28;6244873;22;20008;-95
2023/01/26 12:00:32;;;;;;;9.13;3.38;;;;;;;14.55;46.14;102134.38;6245327;22;20008;-96
2023/01/26 12:03:04;;;;;;;11.55;3.30;;;;;;;13.89;48.43;102159.88;6245714;22;20008;-96
2023/01/26 12:05:43;;;;;;;10.38;3.88;;;;;;;12.88;50.83;102167.50;6245032;22;20409;-96
2023/01/26 12:08:37;;;;;;;7.75;3.03;;;;;;;11.61;54.81;102172.13;6244818;22;20079;-96
2023/01/26 12:11:33;;;;;;;15.15;4.93;;;;;;;14.06;49.72;102154.78;6244419;22;20004;-96
2023/01/26 12:14:04;;;;;;;10.73;4.22;;;;;;;13.83;50.27;102162.78;6242873;22;20195;-95
2023/01/26 12:16:34;;;;;;;10.93;3.35;;;;;;;13.42;50.77;102158.41;6244612;22;20073;-94
2023/01/26 12:19:10;;;;;;;10.25;3.35;;;;;;;12.47;53.16;102125.09;6245121;22;20008;-96
2023/01/26 12:21:41;;;;;;;10.65;3.08;;;;;;;12.38;54.13;102147.81;6245173;22;20145;-95
2023/01/26 12:24:16;;;;;;;13.32;2.78;;;;;;;11.52;56.16;102134.50;6245557;22;20000;-95
2023/01/26 12:26:45;;;;;;;9.27;2.92;;;;;;;11.35;57.38;102161.78;6245146;22;20086;-96
2023/01/26 12:29:17;;;;;;;7.82;3.20;;;;;;;10.61;60.17;102165.84;6246672;22;20028;-96
2023/01/26 12:32:09;;;;;;;13.82;3.75;;;;;;;10.79;59.90;102161.00;6246746;22;20008;-95